Frank Pais International Airport
MUHG : now visible

Airfield :











YOU CAN JOIN US ON...

 
LOGIN :

Register | Disclaimer

   EN    FR    IT 

 









Legend :    VFR   Marginal VFR   IFR   Intensive IFR   Very Intensive IFR
Visi :
Ceiling :
>= 8 km
>= 3000ft
5 to 8 km
1000 to 3000 ft
1500m to 5 km
500 to 1000 ft
800 to 1500m
200 to 500 ft
< 800m
< 200 ft
Symbols :   Thunderstorms  Fog  Heavy snow  Heavy precipitations  Wind > 20 kt






- Airport Elevation : 361 ft
- IATA code : HOG


MUHG - Frank Pais International

CURRENT METAR :
  • 190850Z 07002KT 7000 VCFG NSC 23/22 Q1012

EXPIRED METARs :
  • 190750Z VRB01KT 7000 VCFG SKC 22/22 Q1012
  • 190650Z 09003KT 7000 VCFG SKC 23/23 Q1012

TAF MUHG
Valid from the 19 at 06:00 until the 20 at 06:00 UTC


190500Z 1906/2006 VRB03KT 9000 FEW020
TEMPO 1908/1914 3000 BR



MET'MAP, your aeronautical weather chart ! - Copyright ORBIFLY December 2007 - Disclaimer

ORBIFLY MET'MAP TEAM :

Programming & Development : Alexandra Zaïnal
Concept & Development : Baudouin d'Aumeries
Co-Development & Prog : Marc-Olivier Méhu
Technical & hardware support : Manuel Goepfert

Contact : metmap@orbifly.com




SOURCES & CREDITS :

   NOAA       Earth
Advisory